Currently 43°F in French Valley, California, USA
43°F
45°F / 41°F
2 mph NW
0.00"
Saturday, January 18, 2020 7:40 AM PST

French Valley, California Weather Summary
Last 36 Hours

Temperature Winds Hourly Humidity Dewpoint
Time Report Norm Report Norm Max Gusts Precip. Rpt. Norm Rpt. Norm Pressure
1Sat 07:40 AM  43.0°F  47°F  2 mph NW  1 mph  5 mph  0.00"  86%  81%  39°F  41°F  30.31"
Sat 07:00 AM  42.0°F  46°F  calm  1 mph  5 mph  0.00"  92%  82%  40°F  41°F  30.31"
Sat 06:00 AM  42.7°F  47°F  4 mph E  1 mph  6 mph  0.00"  89%  82%  40°F  41°F  30.30"
Sat 05:00 AM  41.3°F  47°F  3 mph NW  1 mph  7 mph  0.00"  92%  82%  39°F  42°F  30.29"
3Sat 04:43 AM  41.1°F  47°F  4 mph NW  1 mph  7 mph  ----  93%  82%  39°F  42°F  30.28"
Sat 04:00 AM  41.7°F  47°F  3 mph NW  1 mph  4 mph  0.00"  92%  81%  39°F  42°F  30.29"
Sat 03:00 AM  43.1°F  48°F  1 mph NE  1 mph  5 mph  0.00"  92%  81%  41°F  42°F  30.31"
Sat 02:00 AM  44.0°F  49°F  1 mph N  1 mph  7 mph  0.00"  92%  80%  42°F  43°F  30.32"
Sat 01:00 AM  44.2°F  49°F  calm  1 mph  7 mph  0.00"  95%  80%  43°F  43°F  30.31"
2Sat 12:02 AM  44.8°F  50°F  calm  1 mph  4 mph  ----  93%  79%  43°F  43°F  30.31"
Sat 12:00 AM  44.7°F  50°F  2 mph SW  1 mph  4 mph  0.00"  93%  79%  43°F  43°F  30.31"
Fri 11:00 PM  46.3°F  50°F  1 mph NW  1 mph  7 mph  0.00"  90%  78%  43°F  44°F  30.30"
Fri 10:00 PM  45.5°F  51°F  1 mph NW  1 mph  6 mph  0.00"  91%  77%  43°F  44°F  30.29"
Fri 09:00 PM  47.1°F  52°F  calm  2 mph  6 mph  0.00"  90%  75%  44°F  45°F  30.28"
Fri 08:00 PM  48.6°F  54°F  calm  1 mph  6 mph  0.00"  89%  74%  45°F  45°F  30.27"
Fri 07:00 PM  50.6°F  56°F  5 mph E  2 mph  6 mph  0.00"  87%  70%  47°F  46°F  30.26"
Fri 06:00 PM  53.9°F  58°F  calm  2 mph  4 mph  0.00"  75%  64%  46°F  46°F  30.25"
Fri 05:00 PM  57.7°F  62°F  calm  2 mph  7 mph  0.00"  64%  56%  45°F  46°F  30.24"
Fri 04:00 PM  59.5°F  65°F  2 mph NW  3 mph  9 mph  0.00"  64%  50%  47°F  45°F  30.24"
Fri 03:00 PM  60.5°F  66°F  5 mph W  4 mph  8 mph  0.00"  64%  47%  48°F  45°F  30.24"
Fri 02:00 PM  59.6°F  66°F  2 mph SW  4 mph  8 mph  0.00"  69%  47%  49°F  44°F  30.26"
Fri 01:00 PM  58.3°F  65°F  5 mph S  4 mph  9 mph  0.00"  69%  49%  48°F  45°F  30.28"
Fri 12:00 PM  55.2°F  63°F  6 mph S  3 mph  10 mph  0.00"  86%  53%  51°F  45°F  30.31"
Fri 11:00 AM  51.8°F  60°F  2 mph SW  3 mph  6 mph  0.00"  97%  59%  51°F  46°F  30.33"
Fri 10:00 AM  50.0°F  56°F  calm  3 mph  4 mph  0.00"  99%  68%  50°F  45°F  30.32"
Fri 09:00 AM  48.9°F  52°F  1 mph NW  2 mph  3 mph  0.00"  99%  76%  49°F  44°F  30.31"
Fri 08:00 AM  47.9°F  48°F  calm  1 mph  1 mph  0.00"  99%  81%  48°F  42°F  30.27"
Fri 07:00 AM  47.2°F  46°F  calm  1 mph  4 mph  0.00"  99%  83%  47°F  41°F  30.26"
Fri 06:00 AM  46.8°F  47°F  calm  1 mph  none  0.00"  99%  82%  47°F  41°F  30.25"
Fri 05:00 AM  47.0°F  47°F  calm  1 mph  6 mph  0.00"  99%  83%  47°F  42°F  30.24"
Fri 04:00 AM  46.6°F  48°F  3 mph SE  1 mph  7 mph  0.01"  100%  81%  46°F  42°F  30.24"
Fri 03:00 AM  46.7°F  48°F  calm  1 mph  7 mph  0.01"  99%  81%  46°F  42°F  30.25"
Fri 02:00 AM  47.0°F  49°F  3 mph S  1 mph  13 mph  0.01"  99%  80%  47°F  43°F  30.24"
Fri 01:00 AM  47.7°F  49°F  4 mph S  1 mph  11 mph  0.00"  98%  80%  47°F  43°F  30.23"
Fri 12:00 AM  49.0°F  50°F  calm  1 mph  9 mph  0.00"  95%  79%  48°F  43°F  30.23"
Thu 11:00 PM  48.9°F  51°F  3 mph SE  1 mph  8 mph  0.00"  95%  78%  48°F  44°F  30.22"
Thu 10:00 PM  49.3°F  52°F  4 mph S  1 mph  9 mph  0.00"  93%  77%  47°F  44°F  30.21"
Thu 09:00 PM  49.1°F  53°F  1 mph SE  1 mph  9 mph  0.00"  93%  75%  47°F  45°F  30.20"
Thu 08:00 PM  49.2°F  54°F  calm  1 mph  9 mph  0.00"  90%  73%  46°F  45°F  30.18"

  1. Current weather data. No green row appears if the current weather data is also the high or low for the current day.
  2. High temperature for the current day.
  3. Low temperature for the current day.

The French Valley, California weather pages are a service of WeatherCurrents. French Valley is located in southwestern Riverside County, California, north of Temecula, east of Murrieta, and south of Winchester. French Valley is bordered by Lake Skinner.
Copyright ©2020  WeatherCurrents. All rights reserved. - Submit questions and comments - Privacy Policy

This page automatically refreshes every 10 minutes.